createdAt,value
2023-03-05T00:01:13.541Z,56.38
2023-03-05T00:04:10.967Z,56.51
2023-03-05T00:07:12.570Z,56.59
2023-03-05T00:10:10.001Z,56.21
2023-03-05T00:13:08.386Z,56.64
2023-03-05T00:16:05.929Z,56.81
2023-03-05T00:19:03.742Z,56.85
2023-03-05T00:22:01.493Z,56.34
2023-03-05T00:24:58.953Z,56.48
2023-03-05T00:27:57.164Z,56.61
2023-03-05T00:30:54.651Z,56.67
2023-03-05T00:33:52.319Z,56.48
2023-03-05T00:36:49.799Z,56.86
2023-03-05T00:39:47.508Z,56.87
2023-03-05T00:42:44.984Z,57.24
2023-03-05T00:45:42.800Z,57.30
2023-03-05T00:48:40.474Z,57.47
2023-03-05T00:51:37.929Z,57.57
2023-03-05T00:54:35.714Z,57.21
2023-03-05T00:57:33.196Z,57.48
2023-03-05T01:00:30.924Z,57.63
2023-03-05T01:03:28.420Z,57.80
2023-03-05T01:06:26.238Z,57.51
2023-03-05T01:09:25.665Z,57.75
2023-03-05T01:12:23.103Z,57.68
2023-03-05T01:15:22.007Z,58.00
2023-03-05T01:18:19.471Z,58.10
2023-03-05T01:21:17.217Z,58.14
2023-03-05T01:24:14.641Z,57.75
2023-03-05T01:27:12.252Z,57.96
2023-03-05T01:30:09.693Z,58.40
2023-03-05T01:33:07.322Z,58.04
2023-03-05T01:36:04.837Z,58.26
2023-03-05T01:39:03.091Z,58.33
2023-03-05T01:42:00.880Z,58.16
2023-03-05T01:44:58.328Z,58.34
2023-03-05T01:47:55.943Z,58.19
2023-03-05T01:50:53.391Z,58.35
2023-03-05T01:53:51.031Z,58.78
2023-03-05T01:56:48.463Z,58.29
2023-03-05T01:59:46.257Z,58.41
2023-03-05T02:02:43.911Z,58.34
2023-03-05T02:05:42.392Z,58.47
2023-03-05T02:08:40.026Z,58.54
2023-03-05T02:11:37.496Z,58.39
2023-03-05T02:14:35.281Z,58.73
2023-03-05T02:17:32.738Z,58.89
2023-03-05T02:20:30.451Z,58.83
2023-03-05T02:23:27.932Z,58.99
2023-03-05T02:26:26.467Z,59.34
2023-03-05T02:29:23.914Z,59.50
2023-03-05T02:32:21.648Z,59.66
2023-03-05T02:35:19.445Z,60.09
2023-03-05T02:38:16.915Z,60.44
2023-03-05T02:41:14.700Z,60.23
2023-03-05T02:44:12.385Z,60.27
2023-03-05T02:47:09.886Z,59.88
2023-03-05T02:50:07.585Z,60.50
2023-03-05T02:53:05.078Z,60.08
2023-03-05T02:56:02.955Z,60.09
2023-03-05T02:59:00.456Z,59.80
2023-03-05T03:01:58.106Z,59.75
2023-03-05T03:04:55.561Z,60.02
2023-03-05T03:07:53.227Z,59.31
2023-03-05T03:10:51.668Z,60.12
2023-03-05T03:13:49.140Z,59.91
2023-03-05T03:16:46.788Z,59.82
2023-03-05T03:19:44.264Z,60.08
2023-03-05T03:22:42.521Z,60.09
2023-03-05T03:25:39.987Z,60.16
2023-03-05T03:28:37.700Z,60.06
2023-03-05T03:31:35.170Z,59.92
2023-03-05T03:34:32.996Z,59.65
2023-03-05T03:37:30.444Z,59.89
2023-03-05T03:40:28.226Z,60.35
2023-03-05T03:43:25.913Z,60.13
2023-03-05T03:46:23.460Z,59.80
2023-03-05T03:49:21.395Z,60.42
2023-03-05T03:52:18.868Z,60.11
2023-03-05T03:55:16.636Z,60.32
2023-03-05T03:58:14.102Z,60.94
2023-03-05T04:01:11.858Z,60.58
2023-03-05T04:04:09.750Z,60.21
2023-03-05T04:07:07.582Z,60.72
2023-03-05T04:10:05.373Z,60.80
2023-03-05T04:13:02.805Z,60.54
2023-03-05T04:16:00.647Z,60.81
2023-03-05T04:18:58.097Z,61.21
2023-03-05T04:21:55.697Z,60.68
2023-03-05T04:24:53.162Z,60.92
2023-03-05T04:27:50.837Z,61.10
2023-03-05T04:30:48.330Z,61.28
2023-03-05T04:33:45.938Z,60.75
2023-03-05T04:36:43.387Z,61.34
2023-03-05T04:39:41.051Z,61.07
2023-03-05T04:42:38.728Z,60.74
2023-03-05T04:45:37.238Z,61.01
2023-03-05T04:48:34.878Z,61.40
2023-03-05T04:51:32.316Z,61.34
2023-03-05T04:54:29.950Z,61.79
2023-03-05T04:57:27.405Z,61.80
2023-03-05T05:00:25.123Z,61.41
2023-03-05T05:03:22.600Z,61.63
2023-03-05T05:06:20.357Z,61.73
2023-03-05T05:09:18.133Z,62.20
2023-03-05T05:12:15.618Z,62.17
2023-03-05T05:15:13.351Z,62.62
2023-03-05T05:18:10.808Z,62.19
2023-03-05T05:21:08.592Z,62.05
2023-03-05T05:24:06.037Z,61.95
2023-03-05T05:27:03.808Z,62.60
2023-03-05T05:30:01.249Z,62.50
2023-03-05T05:32:58.886Z,62.51
2023-03-05T05:35:56.517Z,62.33
2023-03-05T05:38:53.973Z,63.22
2023-03-05T05:41:51.720Z,63.44
2023-03-05T05:44:49.172Z,62.96
2023-03-05T05:47:46.910Z,63.34
2023-03-05T05:50:44.356Z,63.36
2023-03-05T05:53:42.089Z,63.42
2023-03-05T05:56:39.503Z,63.58
2023-03-05T05:59:37.868Z,63.39
2023-03-05T06:02:35.298Z,63.69
2023-03-05T06:05:32.919Z,63.57
2023-03-05T06:08:30.381Z,63.23
2023-03-05T06:11:28.010Z,63.12
2023-03-05T06:14:25.754Z,63.43
2023-03-05T06:17:30.362Z,63.70
2023-03-05T06:20:28.754Z,63.25
2023-03-05T06:23:26.192Z,63.21
2023-03-05T06:26:23.652Z,63.08
2023-03-05T06:29:21.116Z,63.28
2023-03-05T06:32:18.777Z,63.12
2023-03-05T06:35:16.233Z,63.10
2023-03-05T06:38:13.986Z,63.12
2023-03-05T06:41:11.614Z,63.06
2023-03-05T06:44:09.349Z,63.36
2023-03-05T06:47:07.037Z,63.02
2023-03-05T06:50:04.480Z,63.11
2023-03-05T06:53:02.347Z,63.46
2023-03-05T06:55:59.822Z,63.30
2023-03-05T06:58:57.890Z,62.88
2023-03-05T07:01:55.326Z,62.74
2023-03-05T07:04:52.968Z,62.91
2023-03-05T07:07:50.424Z,62.85
2023-03-05T07:10:48.123Z,62.81
2023-03-05T07:13:47.911Z,62.70
2023-03-05T07:16:45.684Z,62.49
2023-03-05T07:19:44.003Z,62.20
2023-03-05T07:22:41.744Z,62.43
2023-03-05T07:25:39.515Z,62.49
2023-03-05T07:28:36.983Z,62.37
2023-03-05T07:31:34.768Z,62.18
2023-03-05T07:34:32.213Z,61.83
2023-03-05T07:37:29.881Z,61.53
2023-03-05T07:40:27.340Z,61.52
2023-03-05T07:43:25.017Z,61.68
2023-03-05T07:46:24.085Z,61.73
2023-03-05T07:49:22.706Z,61.70
2023-03-05T07:52:20.363Z,61.60
2023-03-05T07:55:17.821Z,61.48
2023-03-05T07:58:15.766Z,61.32
2023-03-05T08:01:14.580Z,61.22
2023-03-05T08:04:12.758Z,61.01
2023-03-05T08:07:10.258Z,60.73
2023-03-05T08:10:07.974Z,60.77
2023-03-05T08:13:05.441Z,60.34
2023-03-05T08:16:03.297Z,60.22
2023-03-05T08:19:00.964Z,60.18
2023-03-05T08:21:58.401Z,59.89
2023-03-05T08:24:56.097Z,59.63
2023-03-05T08:27:53.588Z,59.67
2023-03-05T08:30:51.436Z,59.50
2023-03-05T08:33:48.974Z,59.36
2023-03-05T08:36:48.363Z,59.12
2023-03-05T08:39:45.823Z,58.89
2023-03-05T08:42:43.658Z,58.90
2023-03-05T08:45:41.373Z,58.86
2023-03-05T08:48:38.941Z,58.84
2023-03-05T08:51:37.321Z,58.79
2023-03-05T08:54:34.777Z,58.50
2023-03-05T08:57:32.649Z,58.38
2023-03-05T09:00:30.108Z,58.31
2023-03-05T09:03:27.897Z,58.20
2023-03-05T09:06:25.437Z,58.09
2023-03-05T09:09:23.512Z,58.01
2023-03-05T09:12:21.380Z,57.87
2023-03-05T09:15:18.945Z,57.62
2023-03-05T09:18:16.813Z,57.35
2023-03-05T09:21:14.258Z,57.06
2023-03-05T09:24:12.107Z,56.68
2023-03-05T09:27:09.559Z,56.34
2023-03-05T09:30:09.637Z,56.00
2023-03-05T09:33:07.112Z,55.41
2023-03-05T09:36:05.054Z,55.25
2023-03-05T09:39:02.724Z,54.89
2023-03-05T09:42:00.171Z,54.68
2023-03-05T09:44:57.772Z,54.61
2023-03-05T09:47:55.258Z,53.86
2023-03-05T09:50:53.064Z,53.43
2023-03-05T09:53:50.498Z,52.37
2023-03-05T09:56:48.206Z,51.96
2023-03-05T09:59:46.039Z,51.93
2023-03-05T10:02:43.496Z,51.25
2023-03-05T10:05:41.229Z,50.57
2023-03-05T10:08:38.683Z,49.11
2023-03-05T10:11:36.379Z,47.31
2023-03-05T10:14:34.092Z,45.68
2023-03-05T10:17:33.714Z,43.54
2023-03-05T10:20:31.345Z,42.96
2023-03-05T10:23:29.726Z,42.69
2023-03-05T10:26:27.765Z,41.56
2023-03-05T10:29:25.786Z,41.60
2023-03-05T10:32:24.722Z,42.16
2023-03-05T10:35:22.654Z,41.35
2023-03-05T10:38:20.755Z,40.42
2023-03-05T10:41:18.433Z,40.09
2023-03-05T10:44:16.886Z,39.61
2023-03-05T10:47:14.747Z,39.94
2023-03-05T10:50:12.659Z,39.71
2023-03-05T10:53:10.431Z,39.84
2023-03-05T10:56:08.551Z,40.23
2023-03-05T10:59:06.102Z,40.51
2023-03-05T11:02:04.220Z,40.39
2023-03-05T11:05:05.140Z,40.86
2023-03-05T11:08:04.226Z,40.01
2023-03-05T11:11:03.882Z,39.22
2023-03-05T11:14:02.759Z,38.02
2023-03-05T11:17:01.159Z,37.00
2023-03-05T11:19:59.194Z,36.98
2023-03-05T11:22:57.159Z,37.02
2023-03-05T11:25:54.954Z,36.79
2023-03-05T11:28:53.318Z,36.88
2023-03-05T11:31:50.926Z,37.02
2023-03-05T11:34:48.666Z,37.18
2023-03-05T11:37:46.125Z,37.58
2023-03-05T11:40:45.974Z,37.54
2023-03-05T11:43:44.232Z,37.61
2023-03-05T11:46:42.094Z,38.16
2023-03-05T11:49:40.341Z,38.17
2023-03-05T11:52:37.873Z,38.44
2023-03-05T11:55:35.575Z,38.56
2023-03-05T11:58:35.066Z,39.02
2023-03-05T12:01:33.806Z,39.09
2023-03-05T12:04:31.696Z,39.66
2023-03-05T12:07:29.394Z,39.82
2023-03-05T12:10:27.266Z,40.19
2023-03-05T12:13:25.397Z,40.68
2023-03-05T12:16:25.210Z,41.04
2023-03-05T12:19:24.552Z,41.44
2023-03-05T12:22:23.166Z,41.97
2023-03-05T12:25:20.813Z,42.51
2023-03-05T12:28:20.019Z,42.83
2023-03-05T12:31:17.698Z,43.12
2023-03-05T12:34:15.390Z,43.16
2023-03-05T12:37:13.739Z,43.02
2023-03-05T12:40:13.047Z,42.72
2023-03-05T12:43:10.507Z,42.45
2023-03-05T12:46:09.123Z,42.54
2023-03-05T12:49:06.873Z,42.64
2023-03-05T12:52:05.361Z,42.76
2023-03-05T12:55:04.140Z,42.86
2023-03-05T12:58:02.150Z,42.97
2023-03-05T13:01:03.419Z,43.22
2023-03-05T13:04:01.153Z,43.61
2023-03-05T13:06:59.690Z,43.85
2023-03-05T13:10:01.038Z,43.98
2023-03-05T13:12:58.791Z,44.06
2023-03-05T13:15:58.740Z,44.29
2023-03-05T13:18:57.348Z,44.43
2023-03-05T13:21:55.883Z,44.60
2023-03-05T13:24:54.082Z,44.85
2023-03-05T13:27:52.958Z,44.97
2023-03-05T13:30:52.354Z,45.25
2023-03-05T13:33:52.994Z,45.39
2023-03-05T13:36:52.031Z,45.63
2023-03-05T13:39:50.921Z,45.85
2023-03-05T13:42:49.958Z,46.14
2023-03-05T13:45:47.889Z,46.01
2023-03-05T13:48:45.661Z,46.10
2023-03-05T13:51:44.009Z,46.08
2023-03-05T13:54:41.918Z,46.15
2023-03-05T13:57:41.803Z,46.30
2023-03-05T14:00:42.880Z,46.37
2023-03-05T14:03:40.923Z,46.44
2023-03-05T14:06:38.507Z,46.48
2023-03-05T14:09:36.991Z,46.68
2023-03-05T14:12:36.088Z,46.61
2023-03-05T14:15:37.591Z,46.76
2023-03-05T14:18:36.785Z,46.87
2023-03-05T14:21:35.376Z,47.07
2023-03-05T14:24:37.069Z,47.27
2023-03-05T14:27:35.466Z,47.26
2023-03-05T14:30:36.006Z,47.37
2023-03-05T14:33:34.990Z,47.45
2023-03-05T14:36:34.386Z,47.51
2023-03-05T14:39:34.617Z,47.68
2023-03-05T14:42:33.309Z,47.75
2023-03-05T14:45:32.740Z,47.81
2023-03-05T14:48:31.501Z,47.86
2023-03-05T14:51:31.321Z,48.07
2023-03-05T14:54:30.009Z,48.15
2023-03-05T14:57:29.315Z,48.07
2023-03-05T15:00:29.484Z,48.04
2023-03-05T15:03:28.833Z,47.96
2023-03-05T15:06:27.747Z,48.00
2023-03-05T15:09:27.549Z,47.95
2023-03-05T15:12:26.856Z,47.96
2023-03-05T15:15:25.024Z,47.99
2023-03-05T15:18:22.786Z,47.98
2023-03-05T15:21:21.480Z,48.09
2023-03-05T15:24:32.765Z,48.18
2023-03-05T15:27:31.758Z,48.18
2023-03-05T15:30:31.273Z,48.29
2023-03-05T15:33:34.193Z,48.35
2023-03-05T15:36:33.823Z,48.36
2023-03-05T15:39:37.593Z,48.45
2023-03-05T15:42:36.229Z,48.42
2023-03-05T15:45:34.857Z,48.52
2023-03-05T15:48:33.339Z,48.69
2023-03-05T15:51:34.055Z,48.75
2023-03-05T15:54:35.328Z,48.92
2023-03-05T15:57:34.594Z,48.88
2023-03-05T16:00:34.064Z,48.95
2023-03-05T16:03:33.004Z,49.00
2023-03-05T16:06:34.541Z,49.05
2023-03-05T16:09:33.688Z,49.13
2023-03-05T16:12:33.199Z,49.11
2023-03-05T16:15:34.540Z,49.24
2023-03-05T16:18:34.952Z,49.23
2023-03-05T16:21:38.273Z,49.36
2023-03-05T16:24:37.546Z,49.42
2023-03-05T16:27:37.319Z,49.42
2023-03-05T16:30:36.456Z,49.58
2023-03-05T16:33:35.906Z,49.57
2023-03-05T16:36:38.279Z,49.62
2023-03-05T16:39:37.779Z,49.66
2023-03-05T16:42:37.823Z,49.78
2023-03-05T16:45:38.475Z,49.98
2023-03-05T16:48:40.876Z,50.08
2023-03-05T16:51:40.816Z,50.10
2023-03-05T16:54:41.607Z,50.16
2023-03-05T16:57:40.670Z,50.48
2023-03-05T17:00:41.335Z,50.32
2023-03-05T17:03:42.457Z,50.21
2023-03-05T17:06:41.648Z,50.24
2023-03-05T17:09:40.538Z,50.46
2023-03-05T17:12:40.947Z,50.37
2023-03-05T17:15:39.152Z,50.42
2023-03-05T17:18:38.245Z,50.46
2023-03-05T17:21:36.426Z,50.42
2023-03-05T17:24:37.084Z,50.36
2023-03-05T17:27:37.136Z,50.36
2023-03-05T17:30:38.114Z,50.42
2023-03-05T17:33:38.386Z,50.48
2023-03-05T17:36:41.533Z,50.52
2023-03-05T17:39:41.106Z,50.54
2023-03-05T17:42:43.136Z,50.53
2023-03-05T17:45:42.606Z,50.72
2023-03-05T17:48:42.474Z,50.69
2023-03-05T17:51:43.060Z,50.74
2023-03-05T17:54:41.769Z,50.76
2023-03-05T17:57:41.717Z,50.77
2023-03-05T18:00:54.500Z,50.84
2023-03-05T18:03:54.475Z,50.88
2023-03-05T18:06:53.510Z,50.98
2023-03-05T18:09:53.575Z,51.02
2023-03-05T18:12:52.424Z,51.03
2023-03-05T18:15:54.251Z,51.21
2023-03-05T18:18:53.808Z,51.32
2023-03-05T18:21:53.071Z,51.54
2023-03-05T18:24:51.391Z,51.58
2023-03-05T18:27:50.578Z,51.86
2023-03-05T18:30:52.721Z,51.91
2023-03-05T18:33:52.356Z,51.79
2023-03-05T18:36:53.605Z,51.69
2023-03-05T18:39:59.070Z,51.61
2023-03-05T18:42:59.880Z,51.91
2023-03-05T18:46:01.181Z,51.70
2023-03-05T18:49:04.847Z,51.65
2023-03-05T18:52:04.460Z,51.96
2023-03-05T18:55:02.060Z,52.09
2023-03-05T18:58:02.245Z,52.05
2023-03-05T19:01:02.240Z,52.20
2023-03-05T19:04:03.996Z,52.41
2023-03-05T19:07:04.105Z,52.52
2023-03-05T19:10:07.795Z,52.67
2023-03-05T19:13:23.190Z,52.69
2023-03-05T19:16:22.602Z,52.92
2023-03-05T19:19:24.644Z,53.24
2023-03-05T19:22:23.811Z,53.22
2023-03-05T19:25:22.906Z,53.04
2023-03-05T19:28:22.569Z,52.70
2023-03-05T19:31:22.366Z,52.69
2023-03-05T19:34:21.748Z,52.61
2023-03-05T19:37:20.836Z,52.58
2023-03-05T19:40:21.760Z,52.54
2023-03-05T19:43:21.080Z,52.68
2023-03-05T19:46:21.465Z,52.66
2023-03-05T19:49:20.278Z,52.73
2023-03-05T19:52:19.499Z,52.80
2023-03-05T19:55:18.809Z,52.96
2023-03-05T19:58:18.006Z,52.99
2023-03-05T20:01:17.014Z,53.07
2023-03-05T20:04:17.594Z,53.35
2023-03-05T20:07:16.939Z,53.42
2023-03-05T20:10:15.316Z,53.48
2023-03-05T20:13:15.853Z,53.65
2023-03-05T20:16:14.807Z,53.86
2023-03-05T20:19:15.206Z,54.08
2023-03-05T20:22:14.549Z,54.22
2023-03-05T20:25:13.677Z,54.41
2023-03-05T20:28:12.022Z,54.64
2023-03-05T20:31:10.830Z,54.67
2023-03-05T20:34:13.433Z,54.89
2023-03-05T20:37:14.066Z,54.70
2023-03-05T20:40:12.352Z,54.72
2023-03-05T20:43:11.753Z,54.77
2023-03-05T20:46:12.711Z,54.78
2023-03-05T20:49:11.795Z,54.97
2023-03-05T20:52:10.792Z,54.85
2023-03-05T20:55:10.400Z,55.08
2023-03-05T20:58:09.615Z,55.02
2023-03-05T21:01:08.164Z,55.06
2023-03-05T21:04:06.695Z,55.14
2023-03-05T21:07:04.852Z,55.12
2023-03-05T21:10:04.362Z,55.29
2023-03-05T21:13:03.652Z,55.39
2023-03-05T21:16:01.614Z,55.48
2023-03-05T21:18:59.115Z,55.62
2023-03-05T21:21:58.099Z,55.71
2023-03-05T21:25:02.348Z,55.77
2023-03-05T21:28:00.997Z,55.89
2023-03-05T21:30:59.464Z,55.87
2023-03-05T21:33:58.273Z,55.94
2023-03-05T21:36:56.764Z,56.00
2023-03-05T21:39:54.274Z,55.99
2023-03-05T21:42:53.113Z,56.10
2023-03-05T21:45:52.631Z,56.27
2023-03-05T21:48:50.510Z,56.26
2023-03-05T21:52:01.086Z,56.28
2023-03-05T21:54:59.589Z,56.26
2023-03-05T21:57:57.100Z,56.29
2023-03-05T22:00:54.784Z,56.39
2023-03-05T22:03:52.383Z,56.62
2023-03-05T22:06:50.138Z,56.75
2023-03-05T22:09:47.860Z,56.84
2023-03-05T22:12:54.458Z,56.90
2023-03-05T22:15:52.250Z,56.82
2023-03-05T22:18:49.893Z,56.75
2023-03-05T22:21:47.339Z,56.77
2023-03-05T22:24:44.957Z,56.90
2023-03-05T22:27:42.402Z,56.93
2023-03-05T22:30:40.472Z,56.94
2023-03-05T22:33:38.014Z,56.92
2023-03-05T22:36:35.749Z,56.87
2023-03-05T22:39:33.178Z,56.93
2023-03-05T22:42:30.642Z,56.59
2023-03-05T22:45:28.119Z,55.98
2023-03-05T22:48:25.908Z,55.66
2023-03-05T22:51:23.671Z,55.19
2023-03-05T22:54:21.077Z,54.74
2023-03-05T22:57:18.783Z,54.32
2023-03-05T23:00:16.212Z,53.88
2023-03-05T23:03:14.027Z,53.59
2023-03-05T23:06:11.533Z,53.36
2023-03-05T23:09:09.177Z,53.14
2023-03-05T23:12:06.588Z,52.82
2023-03-05T23:15:05.204Z,52.72
2023-03-05T23:18:02.845Z,52.59
2023-03-05T23:21:00.276Z,52.51
2023-03-05T23:23:58.033Z,52.43
2023-03-05T23:26:55.482Z,52.43
2023-03-05T23:30:06.271Z,52.44
2023-03-05T23:33:04.260Z,52.40
2023-03-05T23:36:01.992Z,52.38
2023-03-05T23:38:59.825Z,52.38
2023-03-05T23:41:57.278Z,52.36
2023-03-05T23:44:55.762Z,52.29
2023-03-05T23:47:53.275Z,52.25
2023-03-05T23:50:51.058Z,52.29
2023-03-05T23:53:48.990Z,52.17
2023-03-05T23:56:46.621Z,52.11
2023-03-05T23:59:44.060Z,52.02
